createdAt,value
2022-10-13T00:01:21.636Z,14.88
2022-10-13T00:03:50.451Z,14.70
2022-10-13T00:06:21.591Z,15.12
2022-10-13T00:08:50.198Z,14.99
2022-10-13T00:11:21.022Z,14.42
2022-10-13T00:13:50.609Z,14.56
2022-10-13T00:16:21.008Z,15.02
2022-10-13T00:18:49.700Z,14.59
2022-10-13T00:21:21.995Z,14.83
2022-10-13T00:23:50.368Z,14.54
2022-10-13T00:26:19.052Z,14.27
2022-10-13T00:28:52.003Z,14.67
2022-10-13T00:31:22.554Z,14.49
2022-10-13T00:33:50.884Z,14.79
2022-10-13T00:36:19.459Z,14.63
2022-10-13T00:38:49.268Z,15.05
2022-10-13T00:41:17.731Z,15.17
2022-10-13T00:43:52.236Z,15.24
2022-10-13T00:46:20.674Z,15.06
2022-10-13T00:48:50.158Z,15.11
2022-10-13T00:51:21.517Z,15.08
2022-10-13T00:53:51.691Z,15.08
2022-10-13T00:56:20.962Z,15.05
2022-10-13T00:58:49.800Z,14.84
2022-10-13T01:01:18.095Z,15.00
2022-10-13T01:03:46.526Z,14.99
2022-10-13T01:06:14.993Z,15.11
2022-10-13T01:08:43.212Z,14.94
2022-10-13T01:11:26.473Z,15.09
2022-10-13T01:13:59.451Z,14.68
2022-10-13T01:16:33.340Z,14.48
2022-10-13T01:19:15.888Z,14.89
2022-10-13T01:24:45.225Z,15.22
2022-10-13T01:27:47.187Z,15.32
2022-10-13T01:30:18.910Z,15.18
2022-10-13T01:32:58.725Z,14.38
2022-10-13T01:35:34.715Z,14.87
2022-10-13T01:38:08.011Z,14.73
2022-10-13T01:40:41.007Z,14.09
2022-10-13T01:43:12.616Z,14.69
2022-10-13T01:45:47.289Z,14.08
2022-10-13T01:48:16.741Z,14.30
2022-10-13T01:50:45.379Z,14.47
2022-10-13T01:53:15.227Z,14.62
2022-10-13T01:55:51.081Z,14.54
2022-10-13T01:58:19.347Z,13.88
2022-10-13T02:01:04.686Z,13.93
2022-10-13T02:03:39.472Z,14.39
2022-10-13T02:06:14.991Z,14.17
2022-10-13T02:08:47.102Z,13.93
2022-10-13T02:11:18.299Z,14.14
2022-10-13T02:13:54.151Z,14.40
2022-10-13T02:16:24.016Z,14.25
2022-10-13T02:18:52.487Z,14.06
2022-10-13T02:21:20.781Z,13.58
2022-10-13T02:23:49.104Z,13.68
2022-10-13T02:26:17.429Z,13.95
2022-10-13T02:28:45.941Z,14.01
2022-10-13T02:31:14.262Z,13.89
2022-10-13T02:33:43.851Z,14.15
2022-10-13T02:36:12.529Z,13.49
2022-10-13T02:38:40.747Z,13.34
2022-10-13T02:41:09.238Z,13.63
2022-10-13T02:43:38.738Z,14.10
2022-10-13T02:46:07.032Z,13.69
2022-10-13T02:48:35.309Z,13.74
2022-10-13T02:51:05.229Z,14.16
2022-10-13T02:53:33.592Z,14.25
2022-10-13T02:56:01.908Z,14.31
2022-10-13T02:58:30.119Z,14.02
2022-10-13T03:01:06.630Z,13.85
2022-10-13T03:03:35.363Z,14.06
2022-10-13T03:06:05.280Z,14.16
2022-10-13T03:08:34.558Z,14.05
2022-10-13T03:11:02.833Z,14.17
2022-10-13T03:13:31.022Z,13.89
2022-10-13T03:15:59.310Z,13.40
2022-10-13T03:18:27.660Z,13.08
2022-10-13T03:20:59.540Z,13.04
2022-10-13T03:23:29.292Z,13.48
2022-10-13T03:25:57.942Z,13.37
2022-10-13T03:28:26.222Z,13.49
2022-10-13T03:31:01.080Z,13.41
2022-10-13T03:33:29.629Z,13.13
2022-10-13T03:35:59.914Z,12.91
2022-10-13T03:38:29.843Z,13.21
2022-10-13T03:40:58.252Z,13.22
2022-10-13T03:43:26.646Z,13.17
2022-10-13T03:45:58.665Z,13.88
2022-10-13T03:48:27.848Z,13.03
2022-10-13T03:50:56.062Z,13.53
2022-10-13T03:53:24.213Z,13.84
2022-10-13T03:55:55.409Z,13.60
2022-10-13T03:58:25.514Z,13.45
2022-10-13T04:00:53.914Z,12.97
2022-10-13T04:03:22.482Z,13.79
2022-10-13T04:05:50.700Z,13.51
2022-10-13T04:08:18.982Z,14.07
2022-10-13T04:10:47.225Z,13.87
2022-10-13T04:13:16.816Z,14.06
2022-10-13T04:15:45.011Z,14.06
2022-10-13T04:18:13.302Z,14.35
2022-10-13T04:20:41.884Z,14.21
2022-10-13T04:23:10.150Z,14.04
2022-10-13T04:25:39.004Z,14.06
2022-10-13T04:28:08.134Z,14.01
2022-10-13T04:30:37.833Z,14.42
2022-10-13T04:33:06.368Z,13.66
2022-10-13T04:35:34.778Z,14.02
2022-10-13T04:38:03.008Z,14.47
2022-10-13T04:40:31.215Z,14.90
2022-10-13T04:42:59.852Z,14.24
2022-10-13T04:45:28.681Z,14.30
2022-10-13T04:47:58.370Z,14.66
2022-10-13T04:50:26.674Z,15.19
2022-10-13T04:52:54.888Z,15.19
2022-10-13T04:55:23.184Z,14.36
2022-10-13T04:57:51.398Z,14.44
2022-10-13T05:00:19.746Z,15.01
2022-10-13T05:02:48.012Z,14.62
2022-10-13T05:05:17.839Z,14.92
2022-10-13T05:07:46.176Z,14.88
2022-10-13T05:10:14.920Z,15.14
2022-10-13T05:12:43.142Z,15.30
2022-10-13T05:15:11.823Z,15.22
2022-10-13T05:17:40.207Z,15.43
2022-10-13T05:20:10.068Z,15.74
2022-10-13T05:22:39.712Z,15.48
2022-10-13T05:25:08.475Z,15.33
2022-10-13T05:27:36.727Z,15.73
2022-10-13T05:30:05.443Z,15.42
2022-10-13T05:32:35.786Z,15.55
2022-10-13T05:35:04.254Z,15.35
2022-10-13T05:37:32.585Z,14.52
2022-10-13T05:40:02.221Z,15.09
2022-10-13T05:42:30.926Z,15.14
2022-10-13T05:44:59.201Z,15.75
2022-10-13T05:47:28.311Z,15.88
2022-10-13T05:49:56.745Z,15.93
2022-10-13T05:52:25.807Z,15.24
2022-10-13T05:54:56.674Z,16.13
2022-10-13T05:57:29.193Z,16.36
2022-10-13T06:00:00.324Z,15.55
2022-10-13T06:02:34.952Z,15.85
2022-10-13T06:05:04.684Z,15.93
2022-10-13T06:07:32.959Z,16.24
2022-10-13T06:10:02.267Z,16.40
2022-10-13T06:12:31.809Z,16.68
2022-10-13T06:15:00.005Z,16.67
2022-10-13T06:17:28.372Z,16.25
2022-10-13T06:19:56.629Z,16.27
2022-10-13T06:22:24.903Z,16.57
2022-10-13T06:24:53.174Z,16.42
2022-10-13T06:27:21.453Z,16.61
2022-10-13T06:29:51.107Z,16.88
2022-10-13T06:32:19.649Z,16.99
2022-10-13T06:34:48.122Z,16.98
2022-10-13T06:37:16.482Z,17.17
2022-10-13T06:39:44.806Z,16.74
2022-10-13T06:42:13.069Z,17.09
2022-10-13T06:44:41.482Z,16.97
2022-10-13T06:47:11.038Z,17.01
2022-10-13T06:49:39.250Z,17.37
2022-10-13T06:52:07.691Z,17.52
2022-10-13T06:54:35.973Z,17.35
2022-10-13T06:57:06.877Z,17.88
2022-10-13T06:59:35.308Z,17.63
2022-10-13T07:02:04.278Z,17.02
2022-10-13T07:04:33.891Z,17.27
2022-10-13T07:07:02.152Z,16.98
2022-10-13T07:09:30.455Z,17.41
2022-10-13T07:11:58.851Z,17.39
2022-10-13T07:14:27.442Z,17.35
2022-10-13T07:16:55.714Z,17.31
2022-10-13T07:19:24.018Z,17.93
2022-10-13T07:21:54.269Z,17.52
2022-10-13T07:24:22.746Z,18.12
2022-10-13T07:26:51.044Z,18.22
2022-10-13T07:29:19.507Z,18.16
2022-10-13T07:31:48.141Z,18.34
2022-10-13T07:34:16.885Z,18.34
2022-10-13T07:36:45.164Z,18.59
2022-10-13T07:39:14.869Z,18.95
2022-10-13T07:41:46.357Z,18.93
2022-10-13T07:44:17.251Z,18.02
2022-10-13T07:46:45.739Z,17.03
2022-10-13T07:49:16.169Z,17.86
2022-10-13T07:51:45.195Z,17.22
2022-10-13T07:54:14.817Z,17.11
2022-10-13T07:56:43.068Z,17.39
2022-10-13T07:59:11.363Z,18.77
2022-10-13T08:01:41.136Z,18.97
2022-10-13T08:04:09.538Z,19.15
2022-10-13T08:06:38.016Z,18.89
2022-10-13T08:09:06.911Z,19.44
2022-10-13T08:11:36.732Z,19.03
2022-10-13T08:14:05.153Z,19.59
2022-10-13T08:16:33.905Z,19.86
2022-10-13T08:19:02.256Z,19.99
2022-10-13T08:21:56.756Z,19.80
2022-10-13T08:24:19.465Z,20.59
2022-10-13T08:26:49.635Z,21.08
2022-10-13T08:29:22.875Z,20.33
2022-10-13T08:31:53.101Z,20.29
2022-10-13T08:34:22.334Z,21.15
2022-10-13T08:36:53.529Z,20.31
2022-10-13T08:39:22.235Z,20.31
2022-10-13T08:41:52.187Z,19.79
2022-10-13T08:47:19.111Z,20.89
2022-10-13T08:49:47.693Z,20.97
2022-10-13T08:52:20.405Z,21.01
2022-10-13T08:54:49.167Z,21.55
2022-10-13T08:57:19.413Z,21.82
2022-10-13T08:59:48.536Z,21.46
2022-10-13T09:02:24.140Z,22.32
2022-10-13T09:04:53.773Z,22.37
2022-10-13T09:07:24.340Z,21.04
2022-10-13T09:09:53.582Z,22.07
2022-10-13T09:12:27.499Z,21.31
2022-10-13T09:15:01.488Z,22.10
2022-10-13T09:17:30.703Z,22.31
2022-10-13T09:20:01.014Z,22.63
2022-10-13T09:22:30.693Z,21.60
2022-10-13T09:25:18.746Z,22.67
2022-10-13T09:27:50.862Z,22.26
2022-10-13T09:30:30.725Z,23.11
2022-10-13T09:33:18.362Z,23.28
2022-10-13T09:35:48.228Z,23.26
2022-10-13T09:38:20.130Z,22.98
2022-10-13T09:40:59.604Z,23.19
2022-10-13T09:43:32.618Z,22.90
2022-10-13T09:46:02.539Z,22.80
2022-10-13T09:48:32.503Z,23.96
2022-10-13T09:51:01.070Z,24.04
2022-10-13T09:53:33.110Z,24.51
2022-10-13T09:56:16.630Z,23.92
2022-10-13T09:58:50.038Z,24.27
2022-10-13T10:01:22.959Z,25.07
2022-10-13T10:03:52.106Z,24.50
2022-10-13T10:06:26.897Z,24.45
2022-10-13T10:09:04.181Z,24.68
2022-10-13T10:11:35.885Z,24.56
2022-10-13T10:14:15.564Z,23.43
2022-10-13T10:16:46.644Z,23.21
2022-10-13T10:19:19.577Z,23.16
2022-10-13T10:21:52.658Z,24.60
2022-10-13T10:24:25.939Z,24.16
2022-10-13T10:26:57.211Z,23.83
2022-10-13T10:29:31.459Z,24.77
2022-10-13T10:32:06.675Z,23.26
2022-10-13T10:34:41.076Z,23.41
2022-10-13T10:37:19.898Z,22.87
2022-10-13T10:39:57.381Z,23.90
2022-10-13T10:43:01.785Z,24.13
2022-10-13T10:45:34.953Z,23.39
2022-10-13T10:48:07.398Z,23.57
2022-10-13T10:50:36.088Z,23.19
2022-10-13T10:53:08.697Z,24.01
2022-10-13T10:55:40.498Z,24.42
2022-10-13T10:58:21.151Z,23.92
2022-10-13T11:00:55.394Z,24.09
2022-10-13T11:03:31.382Z,22.84
2022-10-13T11:06:03.012Z,23.72
2022-10-13T11:08:41.116Z,24.48
2022-10-13T11:11:38.337Z,23.85
2022-10-13T11:14:31.979Z,24.97
2022-10-13T11:17:11.875Z,24.93
2022-10-13T11:19:41.384Z,25.79
2022-10-13T11:22:14.483Z,24.37
2022-10-13T11:24:50.615Z,25.04
2022-10-13T11:27:28.312Z,24.49
2022-10-13T11:29:58.302Z,25.28
2022-10-13T11:32:59.689Z,25.65
2022-10-13T11:35:31.542Z,25.22
2022-10-13T11:38:24.357Z,25.02
2022-10-13T11:41:12.405Z,24.44
2022-10-13T11:43:49.413Z,25.51
2022-10-13T11:46:25.153Z,25.48
2022-10-13T11:49:31.828Z,25.68
2022-10-13T11:52:16.078Z,25.97
2022-10-13T11:54:49.766Z,25.08
2022-10-13T11:57:20.256Z,25.16
2022-10-13T11:59:49.922Z,25.43
2022-10-13T12:02:19.573Z,25.30
2022-10-13T12:05:02.882Z,26.49
2022-10-13T12:07:34.801Z,26.14
2022-10-13T12:10:04.962Z,25.73
2022-10-13T12:12:33.212Z,25.72
2022-10-13T12:15:05.990Z,25.67
2022-10-13T12:17:38.829Z,25.32
2022-10-13T12:20:22.348Z,25.17
2022-10-13T12:22:50.897Z,25.33
2022-10-13T12:25:20.525Z,26.04
2022-10-13T12:27:50.741Z,25.62
2022-10-13T12:30:23.573Z,25.89
2022-10-13T12:32:52.958Z,26.57
2022-10-13T12:35:25.248Z,25.02
2022-10-13T12:37:54.243Z,25.72
2022-10-13T12:40:23.375Z,26.07
2022-10-13T12:42:51.961Z,26.01
2022-10-13T12:45:22.017Z,25.91
2022-10-13T12:47:51.945Z,24.85
2022-10-13T12:50:40.533Z,25.10
2022-10-13T12:53:20.458Z,26.30
2022-10-13T12:55:58.903Z,25.77
2022-10-13T12:58:29.444Z,26.57
2022-10-13T13:01:10.277Z,26.45
2022-10-13T13:03:39.586Z,26.79
2022-10-13T13:06:12.315Z,27.34
2022-10-13T13:08:41.854Z,26.22
2022-10-13T13:11:21.803Z,27.19
2022-10-13T13:13:50.218Z,26.92
2022-10-13T13:16:19.903Z,27.00
2022-10-13T13:18:48.890Z,27.55
2022-10-13T13:21:19.951Z,26.57
2022-10-13T13:23:52.914Z,26.55
2022-10-13T13:26:23.974Z,27.47
2022-10-13T13:28:53.941Z,26.72
2022-10-13T13:31:23.855Z,25.17
2022-10-13T13:33:52.306Z,25.53
2022-10-13T13:36:23.307Z,25.99
2022-10-13T13:38:51.811Z,25.92
2022-10-13T13:41:20.622Z,25.48
2022-10-13T13:43:49.252Z,26.21
2022-10-13T13:46:19.149Z,26.57
2022-10-13T13:48:47.458Z,25.53
2022-10-13T13:51:16.786Z,26.58
2022-10-13T13:53:46.500Z,27.10
2022-10-13T13:56:15.412Z,26.57
2022-10-13T13:58:43.866Z,25.97
2022-10-13T14:01:13.027Z,26.31
2022-10-13T14:03:41.633Z,25.88
2022-10-13T14:06:09.987Z,25.68
2022-10-13T14:08:42.319Z,26.05
2022-10-13T14:11:12.954Z,25.16
2022-10-13T14:13:41.219Z,25.71
2022-10-13T14:16:13.805Z,26.20
2022-10-13T14:18:42.033Z,25.45
2022-10-13T14:21:11.016Z,26.12
2022-10-13T14:23:39.788Z,26.31
2022-10-13T14:26:09.602Z,24.87
2022-10-13T14:28:41.491Z,25.36
2022-10-13T14:31:10.126Z,25.54
2022-10-13T14:33:38.664Z,25.84
2022-10-13T14:36:08.174Z,25.94
2022-10-13T14:38:36.520Z,26.14
2022-10-13T14:41:06.466Z,25.47
2022-10-13T14:43:34.692Z,25.94
2022-10-13T14:46:04.894Z,25.83
2022-10-13T14:48:33.413Z,25.50
2022-10-13T14:51:05.019Z,25.10
2022-10-13T14:53:34.528Z,25.42
2022-10-13T14:56:02.860Z,24.94
2022-10-13T14:58:32.070Z,25.24
2022-10-13T15:01:00.269Z,24.73
2022-10-13T15:03:29.876Z,24.48
2022-10-13T15:05:58.123Z,25.06
2022-10-13T15:08:26.419Z,25.17
2022-10-13T15:10:59.868Z,24.61
2022-10-13T15:13:28.239Z,25.46
2022-10-13T15:15:57.565Z,25.21
2022-10-13T15:18:29.213Z,25.51
2022-10-13T15:20:59.225Z,25.54
2022-10-13T15:23:27.884Z,25.67
2022-10-13T15:25:57.775Z,25.63
2022-10-13T15:28:27.928Z,25.77
2022-10-13T15:30:56.616Z,25.73
2022-10-13T15:33:24.947Z,25.27
2022-10-13T15:35:53.769Z,24.45
2022-10-13T15:38:23.754Z,23.66
2022-10-13T15:40:52.069Z,23.93
2022-10-13T15:43:20.415Z,23.74
2022-10-13T15:45:55.694Z,24.04
2022-10-13T15:48:24.283Z,24.34
2022-10-13T15:50:52.599Z,24.03
2022-10-13T15:53:20.869Z,23.34
2022-10-13T15:55:50.501Z,23.72
2022-10-13T15:58:18.984Z,24.06
2022-10-13T16:00:47.259Z,24.15
2022-10-13T16:03:17.023Z,23.90
2022-10-13T16:05:46.303Z,24.08
2022-10-13T16:08:15.209Z,24.06
2022-10-13T16:10:44.229Z,23.98
2022-10-13T16:13:16.115Z,23.83
2022-10-13T16:15:44.387Z,23.07
2022-10-13T16:18:12.606Z,22.60
2022-10-13T16:20:45.289Z,22.28
2022-10-13T16:23:13.511Z,21.56
2022-10-13T16:25:41.744Z,21.46
2022-10-13T16:28:09.966Z,21.48
2022-10-13T16:30:39.544Z,21.84
2022-10-13T16:33:07.778Z,22.38
2022-10-13T16:35:35.985Z,22.73
2022-10-13T16:38:04.668Z,22.86
2022-10-13T16:40:32.910Z,22.91
2022-10-13T16:43:01.163Z,22.77
2022-10-13T16:45:47.879Z,22.72
2022-10-13T16:48:18.949Z,22.61
2022-10-13T16:50:47.189Z,22.98
2022-10-13T16:53:15.490Z,22.88
2022-10-13T16:55:44.177Z,22.95
2022-10-13T16:58:12.488Z,22.71
2022-10-13T17:00:41.101Z,22.85
2022-10-13T17:03:12.856Z,22.95
2022-10-13T17:05:42.399Z,22.91
2022-10-13T17:08:10.627Z,22.52
2022-10-13T17:10:38.861Z,22.52
2022-10-13T17:13:07.645Z,22.41
2022-10-13T17:15:35.916Z,22.41
2022-10-13T17:18:04.373Z,22.64
2022-10-13T17:20:32.608Z,22.62
2022-10-13T17:23:02.146Z,22.39
2022-10-13T17:25:30.332Z,22.40
2022-10-13T17:27:58.515Z,22.33
2022-10-13T17:30:26.701Z,22.34
2022-10-13T17:35:40.611Z,22.48
2022-10-13T17:38:10.136Z,22.61
2022-10-13T17:40:38.425Z,22.56
2022-10-13T17:43:06.639Z,22.44
2022-10-13T17:45:35.004Z,22.43
2022-10-13T17:48:03.226Z,21.97
2022-10-13T17:50:31.567Z,22.00
2022-10-13T17:53:00.003Z,21.98
2022-10-13T17:55:31.205Z,21.80
2022-10-13T17:57:59.504Z,21.69
2022-10-13T18:00:27.739Z,21.50
2022-10-13T18:02:55.989Z,21.75
2022-10-13T18:05:25.222Z,21.53
2022-10-13T18:07:57.970Z,21.32
2022-10-13T18:10:26.282Z,20.29
2022-10-13T18:12:55.879Z,20.70
2022-10-13T18:15:24.112Z,21.26
2022-10-13T18:17:52.323Z,21.35
2022-10-13T18:20:20.619Z,21.35
2022-10-13T18:22:49.671Z,21.44
2022-10-13T18:25:33.143Z,21.62
2022-10-13T18:28:02.947Z,21.64
2022-10-13T18:30:31.306Z,21.56
2022-10-13T18:32:59.506Z,20.95
2022-10-13T18:35:32.149Z,20.55
2022-10-13T18:38:00.673Z,20.76
2022-10-13T18:40:29.482Z,19.66
2022-10-13T18:42:57.742Z,19.46
2022-10-13T18:45:27.282Z,20.48
2022-10-13T18:47:55.502Z,19.20
2022-10-13T18:50:23.717Z,20.32
2022-10-13T18:52:51.923Z,20.51
2022-10-13T18:55:20.190Z,20.46
2022-10-13T18:57:48.388Z,20.62
2022-10-13T19:00:17.065Z,20.68
2022-10-13T19:02:46.706Z,20.67
2022-10-13T19:05:15.122Z,20.49
2022-10-13T19:07:43.482Z,20.51
2022-10-13T19:10:11.719Z,19.04
2022-10-13T19:12:40.037Z,19.65
2022-10-13T19:15:09.277Z,19.27
2022-10-13T19:17:37.569Z,19.78
2022-10-13T19:20:07.994Z,20.08
2022-10-13T19:22:36.262Z,19.27
2022-10-13T19:25:05.138Z,19.57
2022-10-13T19:27:33.464Z,20.12
2022-10-13T19:30:01.852Z,20.16
2022-10-13T19:32:30.136Z,20.25
2022-10-13T19:34:58.470Z,19.90
2022-10-13T19:37:28.335Z,20.28
2022-10-13T19:39:56.716Z,20.05
2022-10-13T19:42:25.302Z,20.24
2022-10-13T19:44:53.654Z,20.14
2022-10-13T19:47:22.457Z,20.03
2022-10-13T19:49:51.283Z,20.10
2022-10-13T19:52:19.677Z,19.99
2022-10-13T19:54:49.355Z,20.00
2022-10-13T19:57:18.007Z,20.02
2022-10-13T19:59:47.773Z,19.76
2022-10-13T20:02:16.575Z,19.43
2022-10-13T20:04:44.933Z,19.30
2022-10-13T20:07:13.188Z,19.30
2022-10-13T20:09:41.594Z,19.75
2022-10-13T20:12:11.791Z,19.66
2022-10-13T20:14:40.013Z,19.65
2022-10-13T20:17:08.221Z,19.80
2022-10-13T20:19:36.430Z,19.75
2022-10-13T20:22:04.760Z,19.81
2022-10-13T20:24:33.122Z,19.82
2022-10-13T20:27:01.338Z,19.91
2022-10-13T20:29:31.203Z,20.05
2022-10-13T20:31:59.400Z,19.99
2022-10-13T20:34:27.773Z,19.98
2022-10-13T20:36:56.257Z,19.82
2022-10-13T20:39:24.524Z,19.65
2022-10-13T20:41:52.887Z,19.76
2022-10-13T20:44:21.105Z,19.73
2022-10-13T20:46:50.718Z,19.41
2022-10-13T20:49:19.256Z,19.47
2022-10-13T20:51:47.607Z,19.63
2022-10-13T20:54:16.791Z,19.75
2022-10-13T20:56:45.139Z,19.80
2022-10-13T20:59:15.503Z,19.66
2022-10-13T21:01:43.813Z,19.78
2022-10-13T21:04:15.074Z,18.88
2022-10-13T21:06:43.571Z,18.73
2022-10-13T21:09:12.050Z,18.69
2022-10-13T21:14:27.911Z,18.52
2022-10-13T21:17:15.889Z,19.48
2022-10-13T21:19:45.539Z,19.64
2022-10-13T21:22:13.862Z,19.67
2022-10-13T21:24:42.148Z,19.79
2022-10-13T21:27:10.447Z,19.88
2022-10-13T21:29:38.663Z,19.84
2022-10-13T21:32:07.153Z,19.96
2022-10-13T21:34:35.426Z,19.98
2022-10-13T21:37:05.072Z,20.08
2022-10-13T21:39:33.338Z,19.91
2022-10-13T21:42:01.576Z,20.03
2022-10-13T21:44:30.982Z,20.11
2022-10-13T21:46:59.413Z,19.78
2022-10-13T21:49:27.639Z,19.81
2022-10-13T21:51:55.882Z,19.83
2022-10-13T21:54:25.664Z,19.97
2022-10-13T21:56:54.018Z,19.82
2022-10-13T21:59:22.297Z,20.01
2022-10-13T22:01:50.559Z,19.69
2022-10-13T22:04:18.841Z,19.74
2022-10-13T22:06:47.137Z,19.84
2022-10-13T22:09:15.700Z,19.95
2022-10-13T22:11:45.501Z,19.96
2022-10-13T22:14:14.092Z,19.50
2022-10-13T22:16:44.021Z,19.88
2022-10-13T22:19:12.661Z,20.09
2022-10-13T22:21:43.794Z,19.89
2022-10-13T22:24:14.344Z,20.22
2022-10-13T22:26:42.752Z,20.53
2022-10-13T22:29:14.722Z,20.41
2022-10-13T22:31:43.039Z,20.28
2022-10-13T22:34:12.909Z,20.35
2022-10-13T22:36:44.810Z,19.54
2022-10-13T22:39:14.323Z,19.40
2022-10-13T22:41:42.691Z,18.80
2022-10-13T22:44:12.402Z,17.96
2022-10-13T22:46:41.134Z,16.95
2022-10-13T22:49:10.110Z,17.11
2022-10-13T22:51:38.459Z,17.28
2022-10-13T22:54:07.062Z,16.77
2022-10-13T22:56:35.980Z,17.20
2022-10-13T22:59:07.326Z,17.43
2022-10-13T23:01:37.167Z,17.60
2022-10-13T23:04:06.238Z,17.44
2022-10-13T23:06:35.462Z,17.58
2022-10-13T23:09:05.819Z,17.97
2022-10-13T23:11:34.171Z,17.84
2022-10-13T23:14:02.689Z,18.03
2022-10-13T23:16:31.585Z,18.43
2022-10-13T23:19:01.409Z,18.52
2022-10-13T23:21:30.904Z,18.47
2022-10-13T23:24:00.658Z,17.54
2022-10-13T23:26:30.095Z,17.82
2022-10-13T23:28:59.013Z,17.53
2022-10-13T23:31:28.192Z,17.58
2022-10-13T23:33:56.875Z,17.49
2022-10-13T23:36:28.373Z,17.81
2022-10-13T23:38:56.948Z,17.80
2022-10-13T23:41:25.500Z,17.60
2022-10-13T23:43:53.789Z,17.69
2022-10-13T23:46:22.801Z,17.70
2022-10-13T23:48:51.285Z,17.99
2022-10-13T23:51:21.122Z,17.91
2022-10-13T23:53:50.859Z,17.93
2022-10-13T23:56:19.673Z,18.09
2022-10-13T23:58:48.180Z,17.82
